createdAt,value
2022-08-17T00:03:08.485Z,74.06
2022-08-17T00:08:15.548Z,74.27
2022-08-17T00:13:33.145Z,74.20
2022-08-17T00:18:58.403Z,74.01
2022-08-17T00:23:59.686Z,74.18
2022-08-17T00:29:02.855Z,74.31
2022-08-17T00:34:09.432Z,74.09
2022-08-17T00:39:12.583Z,74.08
2022-08-17T00:44:16.580Z,74.40
2022-08-17T00:49:19.992Z,74.48
2022-08-17T00:54:31.493Z,74.51
2022-08-17T00:59:39.213Z,74.91
2022-08-17T01:04:46.512Z,75.66
2022-08-17T01:09:51.511Z,76.03
2022-08-17T01:14:54.587Z,76.39
2022-08-17T01:19:57.929Z,76.79
2022-08-17T01:25:03.688Z,76.82
2022-08-17T01:30:57.465Z,76.92
2022-08-17T01:35:34.050Z,76.91
2022-08-17T01:40:44.072Z,77.19
2022-08-17T01:46:03.002Z,77.57
2022-08-17T01:51:07.723Z,77.49
2022-08-17T01:56:13.844Z,77.53
2022-08-17T02:01:25.469Z,77.72
2022-08-17T02:06:53.661Z,77.65
2022-08-17T02:12:00.213Z,77.85
2022-08-17T02:17:24.829Z,77.66
2022-08-17T02:22:28.938Z,77.77
2022-08-17T02:27:31.943Z,77.94
2022-08-17T02:32:35.002Z,78.12
2022-08-17T02:37:37.877Z,78.12
2022-08-17T02:42:44.079Z,78.32
2022-08-17T02:47:47.546Z,78.33
2022-08-17T02:53:01.948Z,78.43
2022-08-17T02:58:06.135Z,78.45
2022-08-17T03:03:13.727Z,78.45
2022-08-17T03:08:19.117Z,78.71
2022-08-17T03:13:22.529Z,79.03
2022-08-17T03:18:27.344Z,79.12
2022-08-17T03:23:32.628Z,79.37
2022-08-17T03:28:35.912Z,79.37
2022-08-17T03:33:39.424Z,79.35
2022-08-17T03:38:42.480Z,79.63
2022-08-17T03:43:48.064Z,79.67
2022-08-17T03:49:09.540Z,79.72
2022-08-17T03:54:30.986Z,79.96
2022-08-17T03:59:34.914Z,80.14
2022-08-17T04:04:39.262Z,79.91
2022-08-17T04:09:43.214Z,79.78
2022-08-17T04:14:52.640Z,79.65
2022-08-17T04:19:57.627Z,79.82
2022-08-17T04:25:06.989Z,79.90
2022-08-17T04:30:10.750Z,80.04
2022-08-17T04:35:19.136Z,80.13
2022-08-17T04:40:42.739Z,80.18
2022-08-17T04:45:55.067Z,79.94
2022-08-17T04:51:00.284Z,79.65
2022-08-17T04:56:04.005Z,79.39
2022-08-17T05:01:07.564Z,79.09
2022-08-17T05:06:11.169Z,78.68
2022-08-17T05:11:15.049Z,77.57
2022-08-17T05:16:19.731Z,76.73
2022-08-17T05:21:23.458Z,76.00
2022-08-17T05:26:28.727Z,74.88
2022-08-17T05:31:32.567Z,73.47
2022-08-17T05:36:41.763Z,72.69
2022-08-17T05:41:48.142Z,71.59
2022-08-17T05:46:54.265Z,71.04
2022-08-17T05:52:02.253Z,70.07
2022-08-17T05:57:18.195Z,70.10
2022-08-17T06:02:30.252Z,69.39
2022-08-17T06:07:48.374Z,68.99
2022-08-17T06:13:12.773Z,68.80
2022-08-17T06:18:19.366Z,68.13
2022-08-17T06:23:39.696Z,66.91
2022-08-17T06:29:00.025Z,61.37
2022-08-17T06:34:06.673Z,55.04
2022-08-17T06:39:20.180Z,49.24
2022-08-17T06:44:51.262Z,44.85
2022-08-17T06:50:08.470Z,41.77
2022-08-17T06:55:24.779Z,39.55
2022-08-17T07:00:35.597Z,38.22
2022-08-17T07:05:44.129Z,36.77
2022-08-17T07:10:55.815Z,36.51
2022-08-17T07:16:11.445Z,38.40
2022-08-17T07:21:31.888Z,40.69
2022-08-17T07:26:34.887Z,43.22
2022-08-17T07:31:37.960Z,43.08
2022-08-17T07:36:44.205Z,41.30
2022-08-17T07:41:57.519Z,39.63
2022-08-17T07:47:20.673Z,38.06
2022-08-17T07:52:51.099Z,36.64
2022-08-17T07:57:57.899Z,35.47
2022-08-17T08:03:14.271Z,34.78
2022-08-17T08:08:44.779Z,35.03
2022-08-17T08:13:50.094Z,35.59
2022-08-17T08:19:03.989Z,34.75
2022-08-17T08:24:31.438Z,34.80
2022-08-17T08:29:53.155Z,35.38
2022-08-17T08:35:33.821Z,34.95
2022-08-17T08:40:52.477Z,35.56
2022-08-17T08:46:19.572Z,36.12
2022-08-17T08:51:33.068Z,37.70
2022-08-17T08:57:19.731Z,39.19
2022-08-17T09:02:34.646Z,38.41
2022-08-17T09:08:10.416Z,39.86
2022-08-17T09:13:32.069Z,39.07
2022-08-17T09:19:01.610Z,38.72
2022-08-17T09:24:20.687Z,39.21
2022-08-17T09:29:26.549Z,40.70
2022-08-17T09:34:40.053Z,41.92
2022-08-17T09:40:09.838Z,42.58
2022-08-17T09:45:34.254Z,42.47
2022-08-17T09:51:05.073Z,43.15
2022-08-17T09:56:45.599Z,43.57
2022-08-17T10:02:07.171Z,44.27
2022-08-17T10:07:19.291Z,43.78
2022-08-17T10:12:46.432Z,43.78
2022-08-17T10:18:22.529Z,43.89
2022-08-17T10:23:48.700Z,43.59
2022-08-17T10:29:04.484Z,43.73
2022-08-17T10:34:23.061Z,43.93
2022-08-17T10:39:54.607Z,42.78
2022-08-17T10:45:16.500Z,43.05
2022-08-17T10:50:49.817Z,43.63
2022-08-17T10:56:11.671Z,43.31
2022-08-17T11:01:14.621Z,43.51
2022-08-17T11:06:22.593Z,44.02
2022-08-17T11:11:59.950Z,43.30
2022-08-17T11:17:15.654Z,44.01
2022-08-17T11:22:49.593Z,43.61
2022-08-17T11:28:14.190Z,43.38
2022-08-17T11:33:44.956Z,42.62
2022-08-17T11:39:00.797Z,42.52
2022-08-17T11:44:18.905Z,42.40
2022-08-17T11:50:04.809Z,42.69
2022-08-17T11:55:34.503Z,42.94
2022-08-17T12:00:46.012Z,43.22
2022-08-17T12:05:52.656Z,43.16
2022-08-17T12:11:01.052Z,43.47
2022-08-17T12:16:05.249Z,43.38
2022-08-17T12:21:27.628Z,43.43
2022-08-17T12:26:33.366Z,42.50
2022-08-17T12:31:44.538Z,42.54
2022-08-17T12:36:51.520Z,42.16
2022-08-17T12:42:02.117Z,42.67
2022-08-17T12:47:22.178Z,42.91
2022-08-17T12:52:29.769Z,43.08
2022-08-17T12:57:45.845Z,42.63
2022-08-17T13:03:00.866Z,42.70
2022-08-17T13:08:20.487Z,42.92
2022-08-17T13:13:26.830Z,43.44
2022-08-17T13:18:43.878Z,43.69
2022-08-17T13:24:03.325Z,42.92
2022-08-17T13:29:29.367Z,43.34
2022-08-17T13:35:13.524Z,43.48
2022-08-17T13:40:19.452Z,43.65
2022-08-17T13:45:34.823Z,43.81
2022-08-17T13:50:45.357Z,44.00
2022-08-17T13:55:58.659Z,43.93
2022-08-17T14:01:31.765Z,43.75
2022-08-17T14:06:53.705Z,43.22
2022-08-17T14:11:58.377Z,42.63
2022-08-17T14:17:01.405Z,42.23
2022-08-17T14:22:08.973Z,42.52
2022-08-17T14:27:12.277Z,43.14
2022-08-17T14:32:23.155Z,43.16
2022-08-17T14:37:28.025Z,43.28
2022-08-17T14:42:34.418Z,43.55
2022-08-17T14:47:39.380Z,43.65
2022-08-17T14:52:42.789Z,43.78
2022-08-17T14:57:45.773Z,43.80
2022-08-17T15:02:54.278Z,43.72
2022-08-17T15:07:59.070Z,43.73
2022-08-17T15:13:02.189Z,43.99
2022-08-17T15:18:05.266Z,44.11
2022-08-17T15:23:12.593Z,44.59
2022-08-17T15:28:16.955Z,44.46
2022-08-17T15:33:35.295Z,44.78
2022-08-17T15:38:39.916Z,44.30
2022-08-17T15:43:44.641Z,43.65
2022-08-17T15:48:51.055Z,44.34
2022-08-17T15:54:19.119Z,43.67
2022-08-17T15:59:45.969Z,43.66
2022-08-17T16:04:49.514Z,43.45
2022-08-17T16:09:54.913Z,43.16
2022-08-17T16:15:01.497Z,43.14
2022-08-17T16:20:06.076Z,43.32
2022-08-17T16:25:18.977Z,44.15
2022-08-17T16:30:25.160Z,44.61
2022-08-17T16:35:28.235Z,44.77
2022-08-17T16:40:35.833Z,45.19
2022-08-17T16:45:40.942Z,45.82
2022-08-17T16:50:44.228Z,46.18
2022-08-17T17:01:09.228Z,47.09
2022-08-17T17:06:36.653Z,47.43
2022-08-17T17:11:48.217Z,47.93
2022-08-17T17:17:13.762Z,48.19
2022-08-17T17:22:31.414Z,48.70
2022-08-17T17:27:47.584Z,49.00
2022-08-17T17:33:12.382Z,49.35
2022-08-17T17:38:29.233Z,49.74
2022-08-17T17:43:39.548Z,50.19
2022-08-17T17:48:43.532Z,50.41
2022-08-17T17:54:07.322Z,50.84
2022-08-17T17:59:26.881Z,51.19
2022-08-17T18:04:37.542Z,51.70
2022-08-17T18:09:53.793Z,52.10
2022-08-17T18:15:29.867Z,52.46
2022-08-17T18:20:43.123Z,52.82
2022-08-17T18:25:58.875Z,53.13
2022-08-17T18:31:13.162Z,53.27
2022-08-17T18:36:34.228Z,53.60
2022-08-17T18:41:43.651Z,53.97
2022-08-17T18:46:46.743Z,54.09
2022-08-17T18:52:07.015Z,54.51
2022-08-17T18:57:12.450Z,54.89
2022-08-17T19:02:23.198Z,55.53
2022-08-17T19:07:37.435Z,56.49
2022-08-17T19:12:43.323Z,56.96
2022-08-17T19:18:02.066Z,57.05
2022-08-17T19:23:27.689Z,57.49
2022-08-17T19:28:56.827Z,57.55
2022-08-17T19:34:01.882Z,57.97
2022-08-17T19:39:38.137Z,58.29
2022-08-17T19:45:10.821Z,58.87
2022-08-17T19:50:38.707Z,59.13
2022-08-17T19:55:56.901Z,59.57
2022-08-17T20:01:00.195Z,59.82
2022-08-17T20:06:14.809Z,60.10
2022-08-17T20:11:26.157Z,60.20
2022-08-17T20:16:29.382Z,60.48
2022-08-17T20:21:44.141Z,60.69
2022-08-17T20:26:55.463Z,60.91
2022-08-17T20:32:14.603Z,61.28
2022-08-17T20:37:17.479Z,61.44
2022-08-17T20:42:20.461Z,61.79
2022-08-17T20:48:00.863Z,62.10
2022-08-17T20:53:09.114Z,62.40
2022-08-17T20:58:14.968Z,62.71
2022-08-17T21:03:23.435Z,63.03
2022-08-17T21:08:36.878Z,64.32
2022-08-17T21:14:07.195Z,64.55
2022-08-17T21:19:22.392Z,65.06
2022-08-17T21:24:36.632Z,65.26
2022-08-17T21:30:10.049Z,65.42
2022-08-17T21:35:19.419Z,65.73
2022-08-17T21:40:27.405Z,66.18
2022-08-17T21:45:35.677Z,66.50
2022-08-17T21:50:41.787Z,66.78
2022-08-17T21:55:48.979Z,66.88
2022-08-17T22:01:21.856Z,67.11
2022-08-17T22:06:30.172Z,67.23
2022-08-17T22:11:58.251Z,67.68
2022-08-17T22:17:10.267Z,67.84
2022-08-17T22:22:22.104Z,67.84
2022-08-17T22:27:49.356Z,68.14
2022-08-17T22:32:53.384Z,68.27
2022-08-17T22:37:57.849Z,68.50
2022-08-17T22:43:05.708Z,68.77
2022-08-17T22:48:11.835Z,68.75
2022-08-17T22:53:42.407Z,68.97
2022-08-17T22:59:14.442Z,69.53
2022-08-17T23:04:39.024Z,70.06
2022-08-17T23:09:42.253Z,70.33
2022-08-17T23:14:47.094Z,70.43
2022-08-17T23:19:50.006Z,70.76
2022-08-17T23:24:52.957Z,71.03
2022-08-17T23:29:56.320Z,71.27
2022-08-17T23:34:59.275Z,71.36
2022-08-17T23:40:05.078Z,71.53
2022-08-17T23:45:08.817Z,71.73
2022-08-17T23:50:11.667Z,72.04
2022-08-17T23:55:14.760Z,72.27
